Time;durP1;ratioP1;P1;durP2;ratioP2;P2;SDS_P1;SDS_P2;PMS_P1;PMS_P2;Temp;Humidity;BMP_temperature;BMP_pressure;BME280_temperature;BME280_humidity;BME280_pressure;Samples;Min_cycle;Max_cycle;Signal;HPM_P1;HPM_P2
2023/07/24 00:01:25;;;;;;;9.80;5.80;;;;;;;20.11;90.03;97470.19;4129008;28;20672;-93
2023/07/24 00:03:28;;;;;;;10.63;4.90;;;;;;;20.10;90.64;97495.06;4107098;28;20659;-91
2023/07/24 00:05:32;;;;;;;9.60;5.40;;;;;;;20.10;91.56;97542.72;4134376;28;20658;-92
2023/07/24 00:07:35;;;;;;;8.40;5.57;;;;;;;20.08;91.55;97570.38;4119837;28;21312;-92
2023/07/24 00:09:38;;;;;;;8.73;5.60;;;;;;;20.11;92.62;97604.44;4120128;28;20698;-92
2023/07/24 00:11:41;;;;;;;6.60;4.60;;;;;;;20.10;93.11;97574.50;4124930;28;20658;-92
2023/07/24 00:13:44;;;;;;;8.77;4.70;;;;;;;20.08;92.94;97517.41;4136791;28;20672;-92
2023/07/24 00:15:48;;;;;;;7.80;4.90;;;;;;;20.01;93.88;97492.63;4116643;28;20644;-92
2023/07/24 00:17:51;;;;;;;8.00;5.20;;;;;;;19.96;94.17;97497.63;4116774;28;20755;-92
2023/07/24 00:19:54;;;;;;;8.30;5.50;;;;;;;19.88;94.76;97524.19;4131282;28;20655;-91
2023/07/24 00:21:57;;;;;;;8.23;5.60;;;;;;;19.83;95.43;97507.97;4107101;28;21251;-90
2023/07/24 00:24:00;;;;;;;7.37;4.83;;;;;;;19.81;95.28;97491.41;4135763;28;20789;-91
2023/07/24 00:26:03;;;;;;;8.97;6.07;;;;;;;19.81;96.53;97483.47;4136935;28;20687;-90
2023/07/24 00:28:06;;;;;;;6.93;4.60;;;;;;;19.79;95.60;97472.25;4133703;28;20661;-91
2023/07/24 00:30:11;;;;;;;9.97;5.93;;;;;;;19.82;96.06;97477.19;4104658;28;21020;-90
2023/07/24 00:32:15;;;;;;;8.30;5.23;;;;;;;19.79;95.94;97496.06;4109190;28;21466;-90
2023/07/24 00:34:18;;;;;;;10.43;5.70;;;;;;;19.78;97.19;97499.72;4137062;28;20674;-91
2023/07/24 00:36:21;;;;;;;8.80;5.53;;;;;;;19.80;96.92;97499.53;4112605;28;21136;-92
2023/07/24 00:38:25;;;;;;;8.77;4.57;;;;;;;19.81;97.10;97472.06;4125576;28;20742;-92
2023/07/24 00:40:28;;;;;;;8.27;5.03;;;;;;;19.81;96.86;97470.25;4120897;28;20672;-91
2023/07/24 00:42:31;;;;;;;8.93;5.60;;;;;;;19.80;98.00;97467.78;4117967;28;20751;-91
2023/07/24 00:44:34;;;;;;;8.90;5.07;;;;;;;19.78;96.65;97462.66;4122811;28;20667;-91
2023/07/24 00:46:38;;;;;;;8.50;5.30;;;;;;;19.78;97.29;97451.25;4134607;28;20670;-91
2023/07/24 00:48:42;;;;;;;10.87;6.33;;;;;;;19.77;97.10;97463.69;4104846;28;20708;-92
2023/07/24 00:50:45;;;;;;;10.20;5.60;;;;;;;19.76;97.28;97474.44;4105418;28;21357;-91
2023/07/24 00:52:48;;;;;;;12.10;5.57;;;;;;;19.74;98.28;97461.38;4117573;28;20700;-92
2023/07/24 00:54:52;;;;;;;8.57;5.40;;;;;;;19.72;96.97;97452.78;4106519;28;20672;-92
2023/07/24 00:56:55;;;;;;;9.57;5.07;;;;;;;19.72;98.22;97450.13;4114048;28;20734;-92
2023/07/24 00:58:59;;;;;;;9.20;6.03;;;;;;;19.73;97.28;97443.84;4132380;28;20654;-92
2023/07/24 01:01:02;;;;;;;9.77;5.37;;;;;;;19.72;98.99;97450.13;4117596;28;20699;-92
2023/07/24 01:03:05;;;;;;;10.10;5.70;;;;;;;19.69;98.18;97450.47;4106817;28;20671;-92
2023/07/24 01:05:12;;;;;;;7.80;5.40;;;;;;;19.68;99.33;97450.66;4117260;28;20657;-91
2023/07/24 01:07:16;;;;;;;8.27;5.60;;;;;;;19.65;99.56;97438.63;4101187;28;20686;-92
2023/07/24 01:09:19;;;;;;;10.00;5.73;;;;;;;19.65;99.40;97437.78;4135248;28;20655;-92
2023/07/24 01:11:27;;;;;;;9.60;5.60;;;;;;;19.56;99.84;97433.53;4118182;28;20662;-92
2023/07/24 01:13:34;;;;;;;9.47;5.57;;;;;;;19.46;99.23;97427.66;4122571;28;21283;-91
2023/07/24 01:15:40;;;;;;;10.60;6.07;;;;;;;19.43;99.20;97428.81;4105623;28;20672;-92
2023/07/24 01:17:48;;;;;;;9.47;5.33;;;;;;;19.43;98.88;97426.19;4134000;28;20646;-92
2023/07/24 01:19:55;;;;;;;6.90;4.83;;;;;;;19.37;98.25;97412.03;4098064;28;20684;-91
2023/07/24 01:22:05;;;;;;;8.57;5.40;;;;;;;19.34;99.10;97409.72;4107499;28;20655;-92
2023/07/24 01:24:16;;;;;;;8.53;5.67;;;;;;;19.31;100.00;97405.59;4115956;28;20694;-92
2023/07/24 01:26:23;;;;;;;13.00;5.67;;;;;;;19.33;99.10;97403.59;4107241;28;21021;-92
2023/07/24 01:28:27;;;;;;;10.80;5.80;;;;;;;19.32;99.40;97404.63;4134828;28;20641;-91
2023/07/24 01:30:30;;;;;;;11.73;5.80;;;;;;;19.30;99.88;97398.66;4122122;28;20685;-92
2023/07/24 01:32:33;;;;;;;10.23;6.20;;;;;;;19.30;99.06;97401.31;4114239;28;21346;-92
2023/07/24 01:34:36;;;;;;;8.73;6.00;;;;;;;19.31;98.99;97396.84;4134055;28;21060;-92
2023/07/24 01:36:40;;;;;;;8.43;6.07;;;;;;;19.29;99.05;97398.84;4119924;28;20688;-91
2023/07/24 01:38:43;;;;;;;10.23;5.97;;;;;;;19.28;99.09;97405.13;4120722;28;20674;-92
2023/07/24 01:40:46;;;;;;;9.00;5.80;;;;;;;19.26;99.54;97407.97;4135534;28;20646;-92
2023/07/24 01:42:51;;;;;;;9.20;5.53;;;;;;;19.23;99.81;97397.72;4121162;28;20726;-91
2023/07/24 01:44:55;;;;;;;10.97;6.67;;;;;;;19.19;98.51;97400.91;4120331;28;20711;-92
2023/07/24 01:46:58;;;;;;;12.50;6.87;;;;;;;19.18;99.17;97399.25;4122608;28;21234;-92
2023/07/24 01:49:01;;;;;;;9.30;6.50;;;;;;;19.15;99.08;97397.75;4114542;28;20746;-92
2023/07/24 01:51:04;;;;;;;11.60;7.23;;;;;;;19.12;97.49;97402.56;4122701;28;20696;-91
2023/07/24 01:53:06;;;;;;;9.60;5.80;;;;;;;19.08;98.20;97407.41;4121916;28;21249;-92
2023/07/24 01:55:10;;;;;;;8.00;5.43;;;;;;;19.07;98.10;97416.31;4116549;28;21416;-91
2023/07/24 01:57:13;;;;;;;9.73;5.87;;;;;;;19.03;98.64;97415.03;4123465;28;20670;-92
2023/07/24 01:59:17;;;;;;;7.80;5.30;;;;;;;19.02;98.73;97404.63;4122688;28;20742;-92
2023/07/24 02:01:20;;;;;;;8.03;4.87;;;;;;;19.01;98.25;97417.00;4116058;28;20685;-92
2023/07/24 02:03:23;;;;;;;9.07;6.03;;;;;;;19.00;98.39;97423.28;4118742;28;21034;-92
2023/07/24 02:05:27;;;;;;;10.97;6.57;;;;;;;19.02;99.41;97417.84;4107464;28;20730;-92
2023/07/24 02:07:31;;;;;;;10.07;5.97;;;;;;;19.00;98.77;97419.78;4118432;28;20690;-92
2023/07/24 02:09:34;;;;;;;8.00;5.23;;;;;;;18.98;99.74;97419.97;4121527;28;20652;-91
2023/07/24 02:11:37;;;;;;;8.17;6.03;;;;;;;18.99;100.00;97410.22;4106892;28;20655;-91
2023/07/24 02:13:40;;;;;;;10.07;6.53;;;;;;;19.01;100.00;97409.06;4124052;28;21069;-92
2023/07/24 02:15:45;;;;;;;10.57;6.00;;;;;;;19.01;100.00;97411.72;4123539;28;20696;-92
2023/07/24 02:17:48;;;;;;;9.20;5.80;;;;;;;19.01;99.97;97408.22;4116063;28;20704;-92
2023/07/24 02:19:54;;;;;;;10.23;6.10;;;;;;;18.96;99.22;97411.38;4124313;28;20658;-91
2023/07/24 02:21:57;;;;;;;9.87;5.90;;;;;;;18.93;98.90;97410.91;4140163;28;20681;-92
2023/07/24 02:23:59;;;;;;;9.23;5.50;;;;;;;18.93;98.82;97410.91;4127563;28;20656;-92
2023/07/24 02:26:03;;;;;;;9.27;6.20;;;;;;;18.93;99.60;97403.81;4123453;28;20655;-92
2023/07/24 02:28:05;;;;;;;11.80;6.33;;;;;;;18.92;99.56;97404.78;4137347;28;20748;-92
2023/07/24 02:30:09;;;;;;;10.77;6.53;;;;;;;18.91;99.95;97415.53;4110157;28;21234;-91
2023/07/24 02:32:13;;;;;;;9.03;5.47;;;;;;;18.90;100.00;97411.25;4122404;28;20657;-91
2023/07/24 02:34:17;;;;;;;10.10;6.30;;;;;;;18.90;99.94;97409.44;4124175;28;20761;-92
2023/07/24 02:36:21;;;;;;;10.43;5.93;;;;;;;18.91;100.00;97418.19;4126172;28;20651;-92
2023/07/24 02:38:24;;;;;;;8.37;5.70;;;;;;;18.89;100.00;97410.41;4119494;28;20736;-85
2023/07/24 02:40:27;;;;;;;10.70;6.90;;;;;;;18.88;100.00;97418.53;4115269;28;20758;-92
2023/07/24 02:42:30;;;;;;;9.57;5.40;;;;;;;18.86;100.00;97409.94;4109501;28;20651;-84
2023/07/24 02:44:34;;;;;;;8.73;5.80;;;;;;;18.87;100.00;97411.59;4124785;28;21066;-91
2023/07/24 02:46:38;;;;;;;7.97;5.20;;;;;;;18.86;100.00;97404.66;4123450;28;20813;-90
2023/07/24 02:48:42;;;;;;;8.50;5.97;;;;;;;18.86;100.00;97417.88;4123464;28;20711;-90
2023/07/24 02:50:45;;;;;;;8.70;5.60;;;;;;;18.85;100.00;97418.88;4108364;28;20672;-90
2023/07/24 02:52:48;;;;;;;9.77;6.67;;;;;;;18.85;100.00;97400.38;4111298;28;20646;-90
2023/07/24 02:54:52;;;;;;;9.23;6.00;;;;;;;18.86;100.00;97395.94;4123107;28;20651;-90
2023/07/24 02:56:55;;;;;;;10.20;5.93;;;;;;;18.85;100.00;97395.06;4124913;28;20660;-90
2023/07/24 02:58:58;;;;;;;8.87;5.70;;;;;;;18.84;100.00;97390.81;4143411;28;20674;-90
2023/07/24 03:01:06;;;;;;;9.27;5.67;;;;;;;18.85;99.66;97386.34;4118701;28;20654;-90
2023/07/24 03:03:09;;;;;;;14.60;9.20;;;;;;;18.83;100.00;97381.22;4123624;28;20662;-90
2023/07/24 03:05:13;;;;;;;10.97;6.37;;;;;;;18.78;99.80;97378.28;4118382;28;20669;-90
2023/07/24 03:07:16;;;;;;;8.70;5.90;;;;;;;18.72;99.96;97364.91;4121575;28;20698;-90
2023/07/24 03:09:19;;;;;;;9.70;6.00;;;;;;;18.69;100.00;97366.09;4123396;28;22184;-90
2023/07/24 03:11:22;;;;;;;9.03;6.03;;;;;;;18.68;99.76;97375.00;4104425;28;21114;-90
2023/07/24 03:13:24;;;;;;;11.00;6.23;;;;;;;18.67;100.00;97367.25;4139203;28;21288;-90
2023/07/24 03:15:27;;;;;;;11.00;6.00;;;;;;;18.68;100.00;97364.44;4112107;28;20659;-91
2023/07/24 03:17:30;;;;;;;10.37;5.97;;;;;;;18.68;100.00;97363.63;4114515;28;21323;-90
2023/07/24 03:19:33;;;;;;;11.20;6.87;;;;;;;18.69;100.00;97349.44;4137138;28;20650;-90
2023/07/24 03:21:38;;;;;;;8.60;5.87;;;;;;;18.68;100.00;97353.88;4124645;28;20745;-90
2023/07/24 03:23:41;;;;;;;8.77;5.37;;;;;;;18.70;100.00;97361.63;4134021;28;21231;-90
2023/07/24 03:25:44;;;;;;;8.80;5.60;;;;;;;18.68;100.00;97353.88;4121864;28;20686;-90
2023/07/24 03:27:48;;;;;;;9.33;5.57;;;;;;;18.65;100.00;97348.94;4110410;28;21303;-90
2023/07/24 03:29:51;;;;;;;8.83;5.53;;;;;;;18.66;100.00;97347.13;4111426;28;21136;-90
2023/07/24 03:31:54;;;;;;;11.73;6.80;;;;;;;18.64;100.00;97338.53;4122398;28;20693;-90
2023/07/24 03:33:57;;;;;;;11.17;6.83;;;;;;;18.63;100.00;97335.09;4111054;28;20652;-90
2023/07/24 03:36:00;;;;;;;9.73;6.20;;;;;;;18.63;100.00;97329.00;4104236;28;21039;-91
2023/07/24 03:38:05;;;;;;;10.73;6.77;;;;;;;18.64;100.00;97333.25;4135331;28;20646;-91
2023/07/24 03:40:09;;;;;;;9.77;5.87;;;;;;;18.62;100.00;97328.13;4136648;28;20704;-91
2023/07/24 03:42:13;;;;;;;8.80;5.70;;;;;;;18.62;100.00;97337.91;4120040;28;21111;-90
2023/07/24 03:44:16;;;;;;;9.10;6.07;;;;;;;18.62;100.00;97344.00;4116995;28;20694;-91
2023/07/24 03:46:19;;;;;;;9.37;6.00;;;;;;;18.62;100.00;97341.34;4122694;28;20643;-91
2023/07/24 03:48:21;;;;;;;10.70;5.93;;;;;;;18.62;100.00;97344.00;4122631;28;20642;-91
2023/07/24 03:50:24;;;;;;;8.97;6.27;;;;;;;18.60;100.00;97353.91;4119539;28;20853;-91
2023/07/24 03:52:27;;;;;;;10.00;6.30;;;;;;;18.62;100.00;97351.91;4115877;28;20655;-91
2023/07/24 03:54:32;;;;;;;9.50;6.43;;;;;;;18.62;100.00;97357.19;4137285;28;20665;-91
2023/07/24 03:56:35;;;;;;;9.33;6.50;;;;;;;18.63;100.00;97352.75;4118433;28;21115;-91
2023/07/24 03:58:39;;;;;;;12.03;6.33;;;;;;;18.65;100.00;97358.69;4135460;28;20658;-91
2023/07/24 04:00:42;;;;;;;9.47;5.80;;;;;;;18.66;100.00;97355.06;4119558;28;21044;-91
2023/07/24 04:02:45;;;;;;;10.20;6.00;;;;;;;18.67;100.00;97357.53;4130455;28;20647;-91
2023/07/24 04:04:48;;;;;;;7.90;5.60;;;;;;;18.71;100.00;97360.66;4107585;28;20674;-91
2023/07/24 04:06:51;;;;;;;10.50;6.50;;;;;;;18.71;100.00;97361.47;4119284;28;20672;-90
2023/07/24 04:08:55;;;;;;;8.90;5.93;;;;;;;18.72;100.00;97355.19;4121690;28;20651;-90
2023/07/24 04:10:59;;;;;;;9.43;5.97;;;;;;;18.70;100.00;97362.47;4122204;28;21101;-91
2023/07/24 04:13:02;;;;;;;9.73;5.90;;;;;;;18.72;100.00;97363.13;4110203;28;20651;-90
2023/07/24 04:15:06;;;;;;;8.63;5.83;;;;;;;18.75;100.00;97359.28;4117731;28;21027;-91
2023/07/24 04:17:10;;;;;;;8.13;5.63;;;;;;;18.77;100.00;97358.13;4121232;28;20666;-89
2023/07/24 04:19:14;;;;;;;10.60;6.17;;;;;;;18.81;100.00;97353.31;4132682;28;21025;-92
2023/07/24 04:21:17;;;;;;;9.93;6.27;;;;;;;18.85;100.00;97360.72;4133614;28;20689;-90
2023/07/24 04:23:20;;;;;;;11.30;6.50;;;;;;;18.84;100.00;97356.44;4131754;28;20655;-89
2023/07/24 04:25:23;;;;;;;9.00;5.70;;;;;;;18.86;100.00;97346.53;4122236;28;20650;-92
2023/07/24 04:27:28;;;;;;;10.30;5.67;;;;;;;18.88;100.00;97347.16;4106367;28;21270;-92
2023/07/24 04:29:31;;;;;;;10.60;6.13;;;;;;;18.91;100.00;97352.94;4122447;28;20667;-92
2023/07/24 04:31:34;;;;;;;10.30;6.77;;;;;;;18.94;100.00;97355.25;4116214;28;22743;-92
2023/07/24 04:33:37;;;;;;;10.33;6.27;;;;;;;18.97;100.00;97344.31;4112203;28;21040;-86
2023/07/24 04:35:40;;;;;;;9.43;6.00;;;;;;;19.01;100.00;97339.50;4132611;28;20651;-89
2023/07/24 04:37:43;;;;;;;8.87;5.37;;;;;;;19.04;100.00;97339.19;4122797;28;20780;-90
2023/07/24 04:39:46;;;;;;;9.00;6.07;;;;;;;19.06;100.00;97331.88;4135530;28;21220;-89
2023/07/24 04:41:49;;;;;;;10.07;6.50;;;;;;;19.08;100.00;97329.91;4126596;28;21233;-89
2023/07/24 04:43:53;;;;;;;10.30;6.07;;;;;;;19.11;100.00;97324.25;4120443;28;20659;-89
2023/07/24 04:45:56;;;;;;;9.30;6.43;;;;;;;19.16;100.00;97321.91;4132477;28;20640;-89
2023/07/24 04:47:58;;;;;;;9.50;5.90;;;;;;;19.21;100.00;97324.84;4120920;28;21214;-89
2023/07/24 04:50:01;;;;;;;10.97;7.50;;;;;;;19.25;100.00;97318.22;4119792;28;20702;-89
2023/07/24 04:52:05;;;;;;;10.33;6.63;;;;;;;19.31;100.00;97314.88;4108134;28;21236;-89
2023/07/24 04:54:09;;;;;;;12.00;6.43;;;;;;;19.37;100.00;97311.50;4119917;28;20662;-89
2023/07/24 04:56:12;;;;;;;8.80;6.00;;;;;;;19.42;100.00;97318.75;4129757;28;21859;-89
2023/07/24 04:58:15;;;;;;;10.27;6.40;;;;;;;19.47;100.00;97313.72;4120644;28;20754;-85
2023/07/24 05:00:19;;;;;;;8.10;6.00;;;;;;;19.53;100.00;97314.81;4122033;28;20635;-88
2023/07/24 05:02:23;;;;;;;9.97;6.20;;;;;;;19.56;100.00;97320.59;4123822;28;20667;-88
2023/07/24 05:04:26;;;;;;;9.73;6.60;;;;;;;19.60;100.00;97332.44;4134703;28;20788;-88
2023/07/24 05:06:29;;;;;;;9.10;5.83;;;;;;;19.61;100.00;97328.81;4116127;28;20746;-87
2023/07/24 05:08:32;;;;;;;10.00;5.63;;;;;;;19.60;100.00;97321.88;4137445;28;20750;-87
2023/07/24 05:10:36;;;;;;;10.97;6.00;;;;;;;19.62;100.00;97317.25;4116312;28;20661;-88
2023/07/24 05:12:42;;;;;;;9.53;6.70;;;;;;;19.63;100.00;97318.06;4132735;28;20717;-89
2023/07/24 05:14:45;;;;;;;11.10;6.17;;;;;;;19.63;100.00;97310.91;4102727;28;20746;-88
2023/07/24 05:16:50;;;;;;;9.90;6.33;;;;;;;19.63;99.20;97307.47;4123919;28;20795;-88
2023/07/24 05:18:53;;;;;;;8.90;5.63;;;;;;;19.62;100.00;97314.59;4119342;28;20670;-89
2023/07/24 05:20:56;;;;;;;9.70;6.33;;;;;;;19.66;100.00;97309.75;4130905;28;20666;-89
2023/07/24 05:22:59;;;;;;;9.43;6.33;;;;;;;19.72;99.82;97306.38;4122662;28;20636;-89
2023/07/24 05:25:02;;;;;;;9.80;6.20;;;;;;;19.79;99.89;97312.63;4124855;28;21027;-89
2023/07/24 05:27:06;;;;;;;10.83;6.73;;;;;;;19.87;100.00;97308.94;4121010;28;21242;-89
2023/07/24 05:29:09;;;;;;;13.07;7.20;;;;;;;19.97;100.00;97311.31;4101686;28;20645;-89
2023/07/24 05:31:12;;;;;;;9.57;6.27;;;;;;;20.02;100.00;97312.38;4119698;28;20651;-89
2023/07/24 05:33:15;;;;;;;11.53;6.20;;;;;;;20.11;100.00;97324.53;4134551;28;20647;-89
2023/07/24 05:35:18;;;;;;;9.50;6.40;;;;;;;20.18;100.00;97327.28;4123577;28;20650;-89
2023/07/24 05:37:21;;;;;;;12.80;6.20;;;;;;;20.25;100.00;97330.84;4109012;28;20704;-89
2023/07/24 05:39:24;;;;;;;10.20;7.20;;;;;;;20.29;100.00;97313.59;4117356;28;21326;-89
2023/07/24 05:41:28;;;;;;;9.50;6.80;;;;;;;20.28;100.00;97309.28;4127440;28;20701;-89
2023/07/24 05:43:32;;;;;;;7.63;5.60;;;;;;;20.24;99.78;97311.50;4126249;28;20656;-89
2023/07/24 05:45:34;;;;;;;9.87;6.17;;;;;;;20.27;100.00;97321.72;4131993;28;21075;-89
2023/07/24 05:47:37;;;;;;;9.87;6.27;;;;;;;20.27;100.00;97344.75;4129873;28;20647;-89
2023/07/24 05:49:41;;;;;;;9.57;6.33;;;;;;;20.27;100.00;97352.69;4117488;28;20644;-89
2023/07/24 05:51:44;;;;;;;10.00;6.47;;;;;;;20.24;100.00;97348.56;4121842;28;20744;-88
2023/07/24 05:53:47;;;;;;;10.13;6.93;;;;;;;20.23;100.00;97354.06;4136370;28;21009;-88
2023/07/24 05:55:58;;;;;;;8.40;6.07;;;;;;;20.24;100.00;97351.22;4131716;28;20639;-88
2023/07/24 05:58:02;;;;;;;9.70;5.87;;;;;;;20.27;100.00;97358.00;4133625;28;20754;-88
2023/07/24 06:00:06;;;;;;;10.17;6.50;;;;;;;20.28;100.00;97359.63;4123708;28;20687;-88
2023/07/24 06:02:17;;;;;;;9.43;6.60;;;;;;;20.27;100.00;97364.09;4108064;28;20640;-88
2023/07/24 06:04:21;;;;;;;10.40;6.43;;;;;;;20.27;100.00;97377.34;4117105;28;20708;-88
2023/07/24 06:06:25;;;;;;;11.63;6.93;;;;;;;20.25;100.00;97379.38;4123266;28;20661;-86
2023/07/24 06:08:28;;;;;;;10.33;6.57;;;;;;;20.24;100.00;97379.53;4129679;28;20654;-88
2023/07/24 06:10:31;;;;;;;9.00;5.70;;;;;;;20.26;100.00;97385.47;4131382;28;20650;-88
2023/07/24 06:12:35;;;;;;;9.40;5.70;;;;;;;20.27;100.00;97384.47;4106902;28;20649;-88
2023/07/24 06:14:38;;;;;;;8.90;5.97;;;;;;;20.27;100.00;97379.19;4108154;28;20659;-88
2023/07/24 06:16:41;;;;;;;9.40;6.53;;;;;;;20.27;100.00;97384.47;4126173;28;20651;-87
2023/07/24 06:18:44;;;;;;;9.40;6.47;;;;;;;20.25;100.00;97389.13;4116069;28;20661;-87
2023/07/24 06:20:49;;;;;;;8.60;5.87;;;;;;;20.24;100.00;97401.56;4102225;28;20660;-87
2023/07/24 06:22:54;;;;;;;8.77;6.20;;;;;;;20.28;100.00;97388.75;4131599;28;20649;-87
2023/07/24 06:24:57;;;;;;;10.03;6.73;;;;;;;20.31;100.00;97396.34;4120226;28;20754;-87
2023/07/24 06:27:00;;;;;;;8.67;5.90;;;;;;;20.34;100.00;97391.50;4119389;28;20660;-87
2023/07/24 06:29:03;;;;;;;9.60;6.40;;;;;;;20.34;100.00;97387.03;4118120;28;21145;-90
2023/07/24 06:31:07;;;;;;;9.80;6.60;;;;;;;20.34;100.00;97375.59;4129989;28;20651;-87
2023/07/24 06:33:10;;;;;;;10.97;6.97;;;;;;;20.35;100.00;97375.41;4110107;28;20801;-87
2023/07/24 06:35:13;;;;;;;9.40;6.20;;;;;;;20.36;100.00;97379.72;4104783;28;20690;-87
2023/07/24 06:37:16;;;;;;;23.87;18.27;;;;;;;20.37;100.00;97365.47;4111090;28;20649;-87
2023/07/24 06:39:28;;;;;;;14.80;8.87;;;;;;;20.39;100.00;97358.16;4116093;28;20655;-87
2023/07/24 06:41:31;;;;;;;13.20;6.53;;;;;;;20.40;100.00;97349.22;4127036;28;20715;-87
2023/07/24 06:43:34;;;;;;;10.43;7.50;;;;;;;20.44;100.00;97355.78;4125903;28;20701;-87
2023/07/24 06:45:37;;;;;;;8.10;5.93;;;;;;;20.47;100.00;97349.28;4123303;28;20697;-88
2023/07/24 06:47:40;;;;;;;12.00;6.57;;;;;;;20.50;100.00;97341.78;4120446;28;20632;-88
2023/07/24 06:49:43;;;;;;;8.60;5.80;;;;;;;20.57;100.00;97345.38;4133038;28;20663;-88
2023/07/24 06:51:47;;;;;;;8.83;6.40;;;;;;;20.65;100.00;97355.84;4133068;28;20687;-88
2023/07/24 06:53:50;;;;;;;8.97;6.13;;;;;;;20.72;100.00;97342.72;4108235;28;20645;-88
2023/07/24 06:55:54;;;;;;;9.10;6.17;;;;;;;20.77;100.00;97338.50;4136898;28;20640;-88
2023/07/24 06:57:57;;;;;;;10.50;6.30;;;;;;;20.83;100.00;97337.75;4123877;28;21261;-88
2023/07/24 07:00:00;;;;;;;10.23;6.83;;;;;;;20.86;100.00;97337.41;4139214;28;20639;-88
2023/07/24 07:02:04;;;;;;;9.07;6.20;;;;;;;20.89;100.00;97339.69;4126600;28;20638;-88
2023/07/24 07:04:07;;;;;;;9.40;6.37;;;;;;;20.93;100.00;97335.66;4137910;28;21008;-88
2023/07/24 07:06:11;;;;;;;9.73;7.03;;;;;;;20.97;100.00;97336.91;4126073;28;20707;-88
2023/07/24 07:08:34;;;;;;;11.00;6.70;;;;;;;20.92;100.00;97329.50;4144096;28;20634;-88
2023/07/24 07:10:38;;;;;;;11.13;6.90;;;;;;;20.97;100.00;97340.41;4111712;28;20643;-88
2023/07/24 07:12:42;;;;;;;12.10;7.03;;;;;;;21.05;100.00;97337.63;4140250;28;20644;-88
2023/07/24 07:14:45;;;;;;;12.80;7.50;;;;;;;21.12;100.00;97341.16;4126238;28;21004;-88
2023/07/24 07:16:49;;;;;;;12.40;6.60;;;;;;;21.17;100.00;97341.44;4122424;28;20891;-88
2023/07/24 07:18:52;;;;;;;9.80;6.87;;;;;;;21.23;100.00;97339.84;4119329;28;20666;-88
2023/07/24 07:20:54;;;;;;;11.37;9.30;;;;;;;21.25;100.00;97341.31;4138498;28;20681;-88
2023/07/24 07:22:57;;;;;;;9.07;6.70;;;;;;;21.25;100.00;97337.84;4122665;28;20739;-88
2023/07/24 07:25:00;;;;;;;10.40;7.70;;;;;;;21.22;100.00;97335.56;4113497;28;20641;-88
2023/07/24 07:27:02;;;;;;;11.03;7.93;;;;;;;21.23;100.00;97345.13;4141524;28;20639;-89
2023/07/24 07:29:07;;;;;;;10.07;7.03;;;;;;;21.26;100.00;97347.41;4139659;28;21245;-89
2023/07/24 07:31:10;;;;;;;10.47;6.90;;;;;;;21.28;100.00;97356.84;4127301;28;20711;-88
2023/07/24 07:33:13;;;;;;;10.13;6.57;;;;;;;21.30;100.00;97353.00;4134558;28;21026;-88
2023/07/24 07:35:16;;;;;;;12.40;6.83;;;;;;;21.37;100.00;97358.38;4114421;28;21239;-88
2023/07/24 07:37:19;;;;;;;14.37;7.60;;;;;;;21.42;100.00;97362.09;4124302;28;20661;-88
2023/07/24 07:39:23;;;;;;;12.63;7.10;;;;;;;21.45;100.00;97363.53;4112515;28;20717;-89
2023/07/24 07:41:26;;;;;;;9.53;6.80;;;;;;;21.48;100.00;97364.00;4128230;28;20746;-88
2023/07/24 07:43:29;;;;;;;10.77;7.50;;;;;;;21.49;100.00;97370.16;4120417;28;20657;-88
2023/07/24 07:45:34;;;;;;;11.20;7.20;;;;;;;21.54;100.00;97370.41;4125598;28;20667;-88
2023/07/24 07:47:37;;;;;;;11.13;6.63;;;;;;;21.62;100.00;97376.41;4137775;28;20742;-89
2023/07/24 07:49:40;;;;;;;10.00;6.93;;;;;;;21.77;100.00;97387.81;4121390;28;20703;-88
2023/07/24 07:51:43;;;;;;;10.40;6.93;;;;;;;21.88;100.00;97388.09;4130966;28;20671;-89
2023/07/24 07:53:46;;;;;;;10.33;7.33;;;;;;;21.97;100.00;97402.88;4127612;28;20809;-89
2023/07/24 07:55:56;;;;;;;9.73;7.47;;;;;;;22.07;100.00;97397.22;4123458;28;20640;-89
2023/07/24 07:57:59;;;;;;;10.00;7.20;;;;;;;22.14;100.00;97388.28;4112404;28;20657;-89
2023/07/24 08:00:03;;;;;;;12.70;7.83;;;;;;;22.20;100.00;97402.66;4129775;28;20681;-89
2023/07/24 08:02:09;;;;;;;10.33;7.07;;;;;;;22.24;100.00;97404.78;4137798;28;20645;-89
2023/07/24 08:04:12;;;;;;;12.00;7.93;;;;;;;22.25;100.00;97406.38;4122951;28;20677;-89
2023/07/24 08:06:15;;;;;;;11.40;7.50;;;;;;;22.23;100.00;97400.47;4121070;28;21008;-89
2023/07/24 08:08:18;;;;;;;11.13;7.63;;;;;;;22.22;100.00;97408.63;4124328;28;21259;-89
2023/07/24 08:10:21;;;;;;;11.60;8.30;;;;;;;22.20;100.00;97411.44;4107693;28;22693;-89
2023/07/24 08:12:25;;;;;;;13.43;8.73;;;;;;;22.20;100.00;97410.63;4117983;28;20646;-89
2023/07/24 08:14:29;;;;;;;11.27;8.00;;;;;;;22.18;100.00;97417.97;4121519;28;20866;-89
2023/07/24 08:16:32;;;;;;;11.00;8.10;;;;;;;22.15;100.00;97426.34;4140121;28;21231;-89
2023/07/24 08:18:37;;;;;;;12.47;8.20;;;;;;;22.14;100.00;97432.66;4117435;28;20695;-89
2023/07/24 08:20:41;;;;;;;11.90;8.10;;;;;;;22.12;100.00;97442.66;4125016;28;20638;-89
2023/07/24 08:22:44;;;;;;;13.73;7.73;;;;;;;22.13;100.00;97438.97;4136024;28;21065;-89
2023/07/24 08:24:50;;;;;;;11.83;7.60;;;;;;;22.16;100.00;97454.53;4127600;28;20635;-89
2023/07/24 08:26:53;;;;;;;10.57;7.27;;;;;;;22.17;100.00;97450.88;4136195;28;20760;-89
2023/07/24 08:28:56;;;;;;;14.00;8.00;;;;;;;22.13;100.00;97441.63;4123469;28;20854;-89
2023/07/24 08:31:01;;;;;;;12.23;8.07;;;;;;;22.12;100.00;97440.00;4137866;28;20748;-89
2023/07/24 08:33:09;;;;;;;13.07;8.67;;;;;;;22.09;100.00;97440.38;4108520;28;20675;-89
2023/07/24 08:35:13;;;;;;;9.80;7.10;;;;;;;22.07;100.00;97429.94;4135893;28;20650;-89
2023/07/24 08:37:16;;;;;;;12.93;8.30;;;;;;;22.00;99.68;97420.28;4134488;28;21016;-89
2023/07/24 08:39:19;;;;;;;12.50;8.03;;;;;;;21.94;100.00;97418.38;4137719;28;20769;-89
2023/07/24 08:41:22;;;;;;;12.13;8.37;;;;;;;21.89;100.00;97416.31;4107295;28;20756;-88
2023/07/24 08:43:26;;;;;;;13.30;8.17;;;;;;;21.90;100.00;97423.25;4135217;28;21096;-88
2023/07/24 08:45:29;;;;;;;13.30;8.90;;;;;;;21.91;100.00;97411.59;4137069;28;21093;-89
2023/07/24 08:47:32;;;;;;;12.80;8.17;;;;;;;21.91;100.00;97397.53;4120143;28;21208;-90
2023/07/24 08:49:35;;;;;;;12.30;8.07;;;;;;;21.90;100.00;97390.56;4120548;28;21045;-90
2023/07/24 08:51:40;;;;;;;12.53;7.90;;;;;;;21.85;100.00;97367.22;4121025;28;20909;-91
2023/07/24 08:53:44;;;;;;;15.70;8.20;;;;;;;21.79;100.00;97372.50;4136295;28;20682;-90
2023/07/24 08:55:49;;;;;;;13.60;8.60;;;;;;;21.79;100.00;97383.91;4121683;28;20673;-91
2023/07/24 08:57:52;;;;;;;13.50;8.80;;;;;;;21.80;100.00;97364.31;4118222;28;20646;-90
2023/07/24 08:59:56;;;;;;;13.70;7.90;;;;;;;21.86;100.00;97349.44;4112549;28;20709;-90
2023/07/24 09:01:59;;;;;;;11.80;6.40;;;;;;;21.95;100.00;97356.25;4124333;28;21219;-90
2023/07/24 09:04:02;;;;;;;9.67;6.87;;;;;;;22.03;100.00;97348.97;4114276;28;21045;-90
2023/07/24 09:06:07;;;;;;;10.97;7.40;;;;;;;22.08;100.00;97351.06;4122550;28;20642;-90
2023/07/24 09:08:12;;;;;;;12.10;6.80;;;;;;;22.10;100.00;97338.38;4116504;28;20657;-90
2023/07/24 09:10:15;;;;;;;12.23;6.83;;;;;;;22.13;100.00;97335.34;4137126;28;20673;-90
2023/07/24 09:12:18;;;;;;;10.30;7.20;;;;;;;22.16;99.76;97327.00;4134871;28;21228;-91
2023/07/24 09:14:22;;;;;;;10.10;6.70;;;;;;;22.19;97.38;97318.63;4119660;28;21252;-90
2023/07/24 09:16:27;;;;;;;12.23;7.87;;;;;;;22.25;97.17;97318.69;4113819;28;20691;-90
2023/07/24 09:18:40;;;;;;;10.83;6.97;;;;;;;22.37;97.27;97330.41;4137705;28;20637;-90
2023/07/24 09:20:44;;;;;;;10.97;7.30;;;;;;;22.49;96.95;97335.00;4109537;28;20665;-90
2023/07/24 09:22:49;;;;;;;8.70;6.70;;;;;;;22.58;96.34;97344.47;4128171;28;20659;-90
2023/07/24 09:25:14;;;;;;;10.90;6.50;;;;;;;22.73;97.12;97337.16;4125366;28;20665;-89
2023/07/24 09:27:17;;;;;;;12.20;7.50;;;;;;;22.87;96.91;97338.88;4135059;28;20715;-89
2023/07/24 09:29:20;;;;;;;9.57;7.03;;;;;;;23.05;96.86;97336.47;4110483;28;20668;-89
2023/07/24 09:31:35;;;;;;;11.17;7.50;;;;;;;23.23;94.62;97338.41;4127548;28;21032;-89
2023/07/24 09:33:40;;;;;;;9.33;6.40;;;;;;;23.53;92.57;97336.19;4121571;28;20658;-88
2023/07/24 09:35:43;;;;;;;9.00;6.43;;;;;;;23.82;92.16;97344.66;4123860;28;20692;-88